createdAt,value
2023-03-05T00:00:17.611Z,-2.05
2023-03-05T00:03:24.147Z,-2.02
2023-03-05T00:05:57.873Z,-1.98
2023-03-05T00:08:28.147Z,-1.94
2023-03-05T00:11:04.720Z,-1.88
2023-03-05T00:13:35.045Z,-1.77
2023-03-05T00:16:10.484Z,-1.69
2023-03-05T00:18:40.275Z,-1.61
2023-03-05T00:21:21.581Z,-1.58
2023-03-05T00:23:51.838Z,-1.58
2023-03-05T00:26:22.958Z,-1.56
2023-03-05T00:28:52.765Z,-1.57
2023-03-05T00:31:25.343Z,-1.54
2023-03-05T00:33:55.991Z,-1.54
2023-03-05T00:36:25.909Z,-1.54
2023-03-05T00:38:55.320Z,-1.51
2023-03-05T00:41:24.716Z,-1.49
2023-03-05T00:43:54.245Z,-1.43
2023-03-05T00:46:24.570Z,-1.37
2023-03-05T00:48:55.188Z,-1.36
2023-03-05T00:51:25.000Z,-1.32
2023-03-05T00:53:54.821Z,-1.32
2023-03-05T00:56:24.031Z,-1.31
2023-03-05T00:58:53.524Z,-1.35
2023-03-05T01:01:23.281Z,-1.40
2023-03-05T01:03:52.643Z,-1.45
2023-03-05T01:06:21.950Z,-1.55
2023-03-05T01:08:50.988Z,-1.68
2023-03-05T01:11:19.929Z,-1.79
2023-03-05T01:13:48.831Z,-1.89
2023-03-05T01:16:18.040Z,-1.99
2023-03-05T01:18:47.021Z,-2.08
2023-03-05T01:21:15.988Z,-2.16
2023-03-05T01:23:44.913Z,-2.23
2023-03-05T01:26:13.903Z,-2.33
2023-03-05T01:28:42.793Z,-2.43
2023-03-05T01:31:12.569Z,-2.53
2023-03-05T01:33:41.619Z,-2.59
2023-03-05T01:36:14.923Z,-2.67
2023-03-05T01:38:46.362Z,-2.75
2023-03-05T01:41:17.196Z,-2.79
2023-03-05T01:43:47.530Z,-2.76
2023-03-05T01:46:16.962Z,-2.72
2023-03-05T01:48:50.044Z,-2.70
2023-03-05T01:51:20.376Z,-2.67
2023-03-05T01:53:49.654Z,-2.61
2023-03-05T01:56:18.858Z,-2.58
2023-03-05T01:58:47.863Z,-2.60
2023-03-05T02:01:17.189Z,-2.65
2023-03-05T02:03:48.415Z,-2.66
2023-03-05T02:06:17.708Z,-2.68
2023-03-05T02:08:46.705Z,-2.67
2023-03-05T02:11:15.603Z,-2.64
2023-03-05T02:13:44.599Z,-2.60
2023-03-05T02:16:13.840Z,-2.55
2023-03-05T02:18:42.905Z,-2.55
2023-03-05T02:21:12.358Z,-2.51
2023-03-05T02:23:41.407Z,-2.40
2023-03-05T02:26:11.223Z,-2.32
2023-03-05T02:28:44.642Z,-2.21
2023-03-05T02:31:19.690Z,-2.13
2023-03-05T02:33:49.884Z,-2.05
2023-03-05T02:36:18.937Z,-1.99
2023-03-05T02:38:48.697Z,-1.92
2023-03-05T02:41:17.592Z,-1.90
2023-03-05T02:43:46.613Z,-1.89
2023-03-05T02:46:15.637Z,-1.88
2023-03-05T02:48:45.118Z,-1.85
2023-03-05T02:51:15.011Z,-1.83
2023-03-05T02:53:44.012Z,-1.85
2023-03-05T02:56:13.222Z,-1.87
2023-03-05T02:58:42.424Z,-1.89
2023-03-05T03:01:11.558Z,-1.87
2023-03-05T03:03:41.128Z,-1.86
2023-03-05T03:06:10.226Z,-1.85
2023-03-05T03:08:39.121Z,-1.82
2023-03-05T03:11:11.296Z,-1.73
2023-03-05T03:13:40.900Z,-1.64
2023-03-05T03:16:13.603Z,-1.56
2023-03-05T03:18:42.894Z,-1.46
2023-03-05T03:21:21.030Z,-1.34
2023-03-05T03:23:50.080Z,-1.27
2023-03-05T03:26:19.924Z,-1.25
2023-03-05T03:28:48.907Z,-1.26
2023-03-05T03:31:18.222Z,-1.26
2023-03-05T03:33:47.223Z,-1.25
2023-03-05T03:36:16.516Z,-1.25
2023-03-05T03:38:45.625Z,-1.26
2023-03-05T03:41:14.536Z,-1.29
2023-03-05T03:43:43.610Z,-1.29
2023-03-05T03:46:12.578Z,-1.28
2023-03-05T03:48:41.587Z,-1.25
2023-03-05T03:51:10.606Z,-1.16
2023-03-05T03:53:39.622Z,-1.09
2023-03-05T03:56:08.700Z,-1.06
2023-03-05T03:58:38.049Z,-1.02
2023-03-05T04:01:07.006Z,-1.04
2023-03-05T04:03:35.999Z,-1.06
2023-03-05T04:06:05.304Z,-1.06
2023-03-05T04:08:34.303Z,-1.06
2023-03-05T04:11:03.639Z,-1.07
2023-03-05T04:13:32.603Z,-1.10
2023-03-05T04:16:01.874Z,-1.11
2023-03-05T04:18:32.548Z,-1.12
2023-03-05T04:21:01.750Z,-1.13
2023-03-05T04:23:30.845Z,-1.15
2023-03-05T04:26:00.048Z,-1.17
2023-03-05T04:28:29.041Z,-1.18
2023-03-05T04:30:58.193Z,-1.22
2023-03-05T04:33:27.344Z,-1.26
2023-03-05T04:35:56.373Z,-1.26
2023-03-05T04:38:25.436Z,-1.25
2023-03-05T04:40:54.440Z,-1.19
2023-03-05T04:43:23.539Z,-1.09
2023-03-05T04:45:52.532Z,-0.99
2023-03-05T04:48:21.532Z,-0.96
2023-03-05T04:50:50.730Z,-0.96
2023-03-05T04:53:19.737Z,-0.96
2023-03-05T04:55:54.610Z,-0.97
2023-03-05T04:58:24.368Z,-1.03
2023-03-05T05:00:53.368Z,-1.04
2023-03-05T05:03:22.298Z,-1.06
2023-03-05T05:05:59.259Z,-1.08
2023-03-05T05:08:29.286Z,-1.11
2023-03-05T05:11:00.716Z,-1.11
2023-03-05T05:13:31.148Z,-1.09
2023-03-05T05:16:00.600Z,-1.03
2023-03-05T05:18:29.657Z,-0.96
2023-03-05T05:20:58.654Z,-0.87
2023-03-05T05:23:27.668Z,-0.85
2023-03-05T05:26:01.661Z,-0.83
2023-03-05T05:28:31.068Z,-0.82
2023-03-05T05:31:00.097Z,-0.82
2023-03-05T05:33:29.061Z,-0.83
2023-03-05T05:35:58.128Z,-0.87
2023-03-05T05:38:27.266Z,-0.88
2023-03-05T05:41:05.949Z,-0.88
2023-03-05T05:43:35.698Z,-0.89
2023-03-05T05:46:09.099Z,-0.88
2023-03-05T05:48:38.443Z,-0.86
2023-03-05T05:51:19.783Z,-0.83
2023-03-05T05:53:49.806Z,-0.76
2023-03-05T05:56:19.784Z,-0.71
2023-03-05T05:58:49.295Z,-0.68
2023-03-05T06:01:23.087Z,-0.68
2023-03-05T06:03:52.604Z,-0.69
2023-03-05T06:06:24.553Z,-0.69
2023-03-05T06:08:54.480Z,-0.72
2023-03-05T06:11:23.436Z,-0.73
2023-03-05T06:13:52.717Z,-0.75
2023-03-05T06:16:24.402Z,-0.76
2023-03-05T06:18:53.855Z,-0.74
2023-03-05T06:21:23.624Z,-0.72
2023-03-05T06:23:52.532Z,-0.65
2023-03-05T06:26:23.010Z,-0.61
2023-03-05T06:28:52.462Z,-0.59
2023-03-05T06:31:25.949Z,-0.58
2023-03-05T06:34:02.883Z,-0.61
2023-03-05T06:36:31.886Z,-0.61
2023-03-05T06:39:00.832Z,-0.64
2023-03-05T06:41:30.985Z,-0.66
2023-03-05T06:44:02.496Z,-0.68
2023-03-05T06:46:34.461Z,-0.70
2023-03-05T06:49:04.463Z,-0.69
2023-03-05T06:51:35.939Z,-0.74
2023-03-05T06:54:11.555Z,-0.76
2023-03-05T06:56:42.999Z,-0.72
2023-03-05T06:59:13.693Z,-0.69
2023-03-05T07:01:44.057Z,-0.67
2023-03-05T07:04:15.132Z,-0.62
2023-03-05T07:06:44.885Z,-0.64
2023-03-05T07:09:15.785Z,-0.69
2023-03-05T07:11:44.719Z,-0.69
2023-03-05T07:14:13.807Z,-0.73
2023-03-05T07:16:42.790Z,-0.77
2023-03-05T07:19:11.888Z,-0.76
2023-03-05T07:21:40.823Z,-0.82
2023-03-05T07:24:19.288Z,-0.87
2023-03-05T07:26:49.076Z,-0.88
2023-03-05T07:29:18.213Z,-0.80
2023-03-05T07:31:47.412Z,-0.73
2023-03-05T07:34:16.370Z,-0.65
2023-03-05T07:36:56.291Z,-0.56
2023-03-05T07:39:25.273Z,-0.64
2023-03-05T07:42:03.442Z,-0.55
2023-03-05T07:44:32.390Z,-0.58
2023-03-05T07:47:05.029Z,-0.59
2023-03-05T07:49:42.139Z,-0.63
2023-03-05T07:52:11.233Z,-0.61
2023-03-05T07:54:40.340Z,-0.56
2023-03-05T07:57:13.352Z,-0.46
2023-03-05T07:59:43.303Z,-0.42
2023-03-05T08:02:13.819Z,-0.33
2023-03-05T08:04:50.831Z,-0.27
2023-03-05T08:07:23.317Z,-0.23
2023-03-05T08:09:52.188Z,-0.18
2023-03-05T08:12:21.267Z,-0.19
2023-03-05T08:14:51.497Z,-0.15
2023-03-05T08:17:20.423Z,-0.11
2023-03-05T08:19:49.435Z,-0.06
2023-03-05T08:22:20.631Z,0.03
2023-03-05T08:24:50.627Z,0.10
2023-03-05T08:27:19.618Z,0.19
2023-03-05T08:29:48.564Z,0.25
2023-03-05T08:32:17.703Z,0.32
2023-03-05T08:34:46.903Z,0.38
2023-03-05T08:37:15.998Z,0.44
2023-03-05T08:39:44.892Z,0.49
2023-03-05T08:42:16.653Z,0.52
2023-03-05T08:44:48.824Z,0.69
2023-03-05T08:47:19.291Z,0.77
2023-03-05T08:49:48.353Z,0.87
2023-03-05T08:52:17.348Z,0.96
2023-03-05T08:54:46.246Z,1.01
2023-03-05T08:57:15.244Z,1.04
2023-03-05T08:59:44.247Z,1.05
2023-03-05T09:02:13.656Z,1.05
2023-03-05T09:04:42.707Z,1.13
2023-03-05T09:07:11.704Z,1.14
2023-03-05T09:09:40.565Z,1.14
2023-03-05T09:12:12.148Z,1.13
2023-03-05T09:14:42.218Z,1.09
2023-03-05T09:17:21.486Z,1.03
2023-03-05T09:19:50.861Z,1.13
2023-03-05T09:22:21.125Z,1.22
2023-03-05T09:24:50.041Z,1.28
2023-03-05T09:27:18.968Z,1.31
2023-03-05T09:29:48.374Z,1.33
2023-03-05T09:32:17.315Z,1.38
2023-03-05T09:34:46.372Z,1.46
2023-03-05T09:37:19.173Z,1.59
2023-03-05T09:39:48.147Z,1.66
2023-03-05T09:42:29.439Z,1.83
2023-03-05T09:45:10.302Z,1.98
2023-03-05T09:48:13.268Z,2.11
2023-03-05T09:50:47.485Z,2.21
2023-03-05T09:53:28.563Z,2.28
2023-03-05T09:56:04.743Z,2.48
2023-03-05T09:58:41.191Z,2.94
2023-03-05T10:01:34.849Z,3.48
2023-03-05T10:04:11.919Z,4.07
2023-03-05T10:07:02.862Z,4.62
2023-03-05T10:09:50.971Z,5.30
2023-03-05T10:12:35.195Z,5.77
2023-03-05T10:15:09.378Z,6.26
2023-03-05T10:18:05.814Z,6.62
2023-03-05T10:20:53.832Z,6.42
2023-03-05T10:23:37.677Z,5.75
2023-03-05T10:26:15.375Z,5.08
2023-03-05T10:28:51.593Z,4.49
2023-03-05T10:31:36.257Z,4.08
2023-03-05T10:34:33.907Z,3.88
2023-03-05T10:37:21.428Z,3.97
2023-03-05T10:40:15.120Z,3.89
2023-03-05T10:43:06.264Z,4.12
2023-03-05T10:45:40.111Z,4.47
2023-03-05T10:48:33.881Z,4.59
2023-03-05T10:51:13.922Z,4.16
2023-03-05T10:53:51.462Z,3.85
2023-03-05T10:56:23.293Z,3.54
2023-03-05T10:58:53.025Z,3.32
2023-03-05T11:01:28.191Z,3.15
2023-03-05T11:04:05.829Z,2.97
2023-03-05T11:06:43.527Z,2.78
2023-03-05T11:09:18.220Z,2.71
2023-03-05T11:12:12.309Z,2.65
2023-03-05T11:15:10.494Z,2.49
2023-03-05T11:17:48.087Z,2.39
2023-03-05T11:20:29.555Z,2.38
2023-03-05T11:23:25.727Z,2.33
2023-03-05T11:26:05.405Z,2.28
2023-03-05T11:28:38.269Z,2.27
2023-03-05T11:31:19.893Z,2.25
2023-03-05T11:34:17.489Z,2.18
2023-03-05T11:36:58.522Z,2.08
2023-03-05T11:39:30.593Z,1.96
2023-03-05T11:42:13.889Z,1.90
2023-03-05T11:44:49.271Z,2.05
2023-03-05T11:47:18.219Z,2.16
2023-03-05T11:49:50.892Z,2.33
2023-03-05T11:52:32.557Z,2.55
2023-03-05T11:55:20.895Z,2.71
2023-03-05T11:58:39.498Z,2.84
2023-03-05T12:01:23.888Z,2.88
2023-03-05T12:03:53.537Z,2.91
2023-03-05T12:06:43.745Z,2.92
2023-03-05T12:09:25.957Z,2.99
2023-03-05T12:12:10.162Z,2.94
2023-03-05T12:14:48.644Z,2.94
2023-03-05T12:17:31.673Z,3.10
2023-03-05T12:20:24.281Z,4.02
2023-03-05T12:22:53.526Z,4.29
2023-03-05T12:25:33.619Z,4.19
2023-03-05T12:28:03.263Z,4.21
2023-03-05T12:30:35.258Z,4.20
2023-03-05T12:33:35.902Z,4.21
2023-03-05T12:36:23.286Z,3.86
2023-03-05T12:38:56.233Z,3.50
2023-03-05T12:41:31.022Z,3.17
2023-03-05T12:44:24.161Z,2.85
2023-03-05T12:47:23.699Z,2.54
2023-03-05T12:49:52.799Z,2.35
2023-03-05T12:52:25.086Z,2.22
2023-03-05T12:55:20.364Z,1.98
2023-03-05T12:57:58.497Z,1.78
2023-03-05T13:00:33.957Z,1.62
2023-03-05T13:03:08.411Z,1.48
2023-03-05T13:05:39.494Z,1.31
2023-03-05T13:08:26.737Z,1.20
2023-03-05T13:11:02.648Z,1.10
2023-03-05T13:13:53.337Z,1.06
2023-03-05T13:16:38.895Z,1.00
2023-03-05T13:19:21.911Z,0.92
2023-03-05T13:22:14.182Z,0.96
2023-03-05T13:24:53.480Z,0.93
2023-03-05T13:27:37.875Z,0.85
2023-03-05T13:30:34.371Z,0.91
2023-03-05T13:33:33.141Z,0.87
2023-03-05T13:36:09.978Z,0.87
2023-03-05T13:38:47.089Z,0.90
2023-03-05T13:41:16.002Z,0.88
2023-03-05T13:44:12.428Z,0.93
2023-03-05T13:46:42.352Z,0.99
2023-03-05T13:49:18.937Z,1.05
2023-03-05T13:51:52.414Z,1.21
2023-03-05T13:54:23.416Z,1.44
2023-03-05T13:56:58.929Z,1.66
2023-03-05T13:59:34.260Z,2.00
2023-03-05T14:02:18.455Z,2.53
2023-03-05T14:04:50.416Z,3.37
2023-03-05T14:07:38.644Z,4.08
2023-03-05T14:10:39.381Z,3.81
2023-03-05T14:13:20.922Z,3.75
2023-03-05T14:16:28.190Z,4.35
2023-03-05T14:19:01.308Z,5.03
2023-03-05T14:21:46.116Z,5.23
2023-03-05T14:24:23.029Z,5.24
2023-03-05T14:27:01.039Z,4.78
2023-03-05T14:29:30.136Z,4.22
2023-03-05T14:32:18.672Z,3.84
2023-03-05T14:34:53.190Z,3.41
2023-03-05T14:37:45.102Z,3.11
2023-03-05T14:40:14.091Z,2.91
2023-03-05T14:43:02.177Z,2.74
2023-03-05T14:45:39.865Z,2.43
2023-03-05T14:48:13.068Z,2.24
2023-03-05T14:50:44.948Z,2.08
2023-03-05T14:53:17.392Z,1.98
2023-03-05T14:55:50.509Z,1.87
2023-03-05T14:58:22.233Z,1.76
2023-03-05T15:00:51.455Z,1.67
2023-03-05T15:03:23.000Z,1.62
2023-03-05T15:05:54.903Z,1.56
2023-03-05T15:08:27.128Z,1.52
2023-03-05T15:10:56.363Z,1.49
2023-03-05T15:13:26.768Z,1.48
2023-03-05T15:15:56.096Z,1.46
2023-03-05T15:18:25.181Z,1.43
2023-03-05T15:20:54.160Z,1.42
2023-03-05T15:23:23.770Z,1.41
2023-03-05T15:25:52.658Z,1.37
2023-03-05T15:28:21.739Z,1.35
2023-03-05T15:30:50.758Z,1.36
2023-03-05T15:33:19.828Z,1.41
2023-03-05T15:35:49.060Z,1.46
2023-03-05T15:38:18.129Z,1.46
2023-03-05T15:40:47.437Z,1.49
2023-03-05T15:43:16.837Z,1.49
2023-03-05T15:45:46.452Z,1.49
2023-03-05T15:48:15.653Z,1.45
2023-03-05T15:50:45.412Z,1.42
2023-03-05T15:53:18.270Z,1.39
2023-03-05T15:55:47.235Z,1.35
2023-03-05T15:58:17.233Z,1.32
2023-03-05T16:00:47.624Z,1.27
2023-03-05T16:03:16.921Z,1.21
2023-03-05T16:05:45.879Z,1.13
2023-03-05T16:08:14.880Z,1.06
2023-03-05T16:10:43.784Z,1.01
2023-03-05T16:13:17.683Z,0.94
2023-03-05T16:15:53.055Z,0.90
2023-03-05T16:18:23.508Z,0.84
2023-03-05T16:20:52.652Z,0.81
2023-03-05T16:23:22.429Z,0.80
2023-03-05T16:25:51.510Z,0.82
2023-03-05T16:28:20.405Z,0.88
2023-03-05T16:30:54.541Z,0.90
2023-03-05T16:33:24.037Z,0.88
2023-03-05T16:36:13.230Z,0.89
2023-03-05T16:38:42.125Z,0.81
2023-03-05T16:41:11.010Z,0.76
2023-03-05T16:43:39.977Z,0.74
2023-03-05T16:46:08.909Z,0.63
2023-03-05T16:48:37.914Z,0.59
2023-03-05T16:51:07.172Z,0.51
2023-03-05T16:53:36.622Z,0.45
2023-03-05T16:56:07.829Z,0.34
2023-03-05T16:58:39.277Z,0.18
2023-03-05T17:01:14.383Z,0.05
2023-03-05T17:03:44.243Z,-0.03
2023-03-05T17:06:15.051Z,-0.10
2023-03-05T17:08:45.381Z,-0.15
2023-03-05T17:11:15.300Z,-0.21
2023-03-05T17:13:45.544Z,-0.24
2023-03-05T17:16:18.567Z,-0.17
2023-03-05T17:18:48.441Z,-0.08
2023-03-05T17:21:17.535Z,0.01
2023-03-05T17:23:46.531Z,0.07
2023-03-05T17:26:18.955Z,0.09
2023-03-05T17:28:48.000Z,0.13
2023-03-05T17:31:17.036Z,0.15
2023-03-05T17:33:48.395Z,0.16
2023-03-05T17:36:28.719Z,0.16
2023-03-05T17:39:00.876Z,0.17
2023-03-05T17:41:29.770Z,0.14
2023-03-05T17:43:58.773Z,0.06
2023-03-05T17:46:28.350Z,0.02
2023-03-05T17:49:04.487Z,-0.08
2023-03-05T17:51:36.010Z,-0.09
2023-03-05T17:54:10.431Z,-0.16
2023-03-05T17:56:46.788Z,-0.24
2023-03-05T17:59:31.864Z,-0.29
2023-03-05T18:02:00.924Z,-0.32
2023-03-05T18:04:29.867Z,-0.30
2023-03-05T18:06:58.880Z,-0.26
2023-03-05T18:09:27.795Z,-0.24
2023-03-05T18:11:56.711Z,-0.22
2023-03-05T18:14:25.721Z,-0.25
2023-03-05T18:16:54.961Z,-0.31
2023-03-05T18:19:25.304Z,-0.30
2023-03-05T18:21:54.255Z,-0.32
2023-03-05T18:24:23.083Z,-0.35
2023-03-05T18:26:51.959Z,-0.43
2023-03-05T18:29:24.851Z,-0.50
2023-03-05T18:32:23.243Z,-0.56
2023-03-05T18:35:11.946Z,-0.55
2023-03-05T18:37:45.900Z,-0.65
2023-03-05T18:40:30.662Z,-0.56
2023-03-05T18:43:01.078Z,-0.54
2023-03-05T18:45:30.922Z,-0.47
2023-03-05T18:48:00.224Z,-0.35
2023-03-05T18:50:29.752Z,-0.34
2023-03-05T18:52:58.731Z,-0.36
2023-03-05T18:55:29.658Z,-0.45
2023-03-05T18:57:59.115Z,-0.52
2023-03-05T19:00:31.301Z,-0.59
2023-03-05T19:03:00.701Z,-0.67
2023-03-05T19:05:29.994Z,-0.72
2023-03-05T19:08:20.754Z,-0.78
2023-03-05T19:11:21.031Z,-0.82
2023-03-05T19:14:04.367Z,-0.87
2023-03-05T19:16:43.512Z,-0.96
2023-03-05T19:19:16.616Z,-1.05
2023-03-05T19:21:48.450Z,-1.06
2023-03-05T19:24:17.598Z,-1.00
2023-03-05T19:26:46.651Z,-0.97
2023-03-05T19:29:16.673Z,-0.99
2023-03-05T19:31:45.542Z,-1.03
2023-03-05T19:34:14.536Z,-1.06
2023-03-05T19:36:43.601Z,-1.14
2023-03-05T19:39:13.601Z,-1.28
2023-03-05T19:41:42.758Z,-1.37
2023-03-05T19:44:13.026Z,-1.49
2023-03-05T19:46:45.406Z,-1.58
2023-03-05T19:49:21.527Z,-1.60
2023-03-05T19:51:56.718Z,-1.68
2023-03-05T19:54:25.683Z,-1.75
2023-03-05T19:56:56.040Z,-1.78
2023-03-05T19:59:25.542Z,-1.74
2023-03-05T20:01:54.602Z,-1.66
2023-03-05T20:04:24.344Z,-1.61
2023-03-05T20:06:53.271Z,-1.57
2023-03-05T20:09:22.188Z,-1.51
2023-03-05T20:11:51.292Z,-1.46
2023-03-05T20:14:20.157Z,-1.45
2023-03-05T20:16:49.116Z,-1.46
2023-03-05T20:19:18.530Z,-1.48
2023-03-05T20:21:48.024Z,-1.51
2023-03-05T20:24:19.789Z,-1.56
2023-03-05T20:26:48.888Z,-1.60
2023-03-05T20:29:18.725Z,-1.60
2023-03-05T20:31:50.150Z,-1.59
2023-03-05T20:34:20.586Z,-1.58
2023-03-05T20:36:49.612Z,-1.55
2023-03-05T20:39:18.607Z,-1.51
2023-03-05T20:41:48.654Z,-1.52
2023-03-05T20:44:17.584Z,-1.56
2023-03-05T20:46:59.749Z,-1.58
2023-03-05T20:49:28.838Z,-1.62
2023-03-05T20:51:57.776Z,-1.67
2023-03-05T20:54:28.166Z,-1.71
2023-03-05T20:56:57.141Z,-1.76
2023-03-05T20:59:26.172Z,-1.81
2023-03-05T21:01:55.222Z,-1.84
2023-03-05T21:04:24.177Z,-1.82
2023-03-05T21:06:53.272Z,-1.78
2023-03-05T21:09:22.450Z,-1.69
2023-03-05T21:11:51.437Z,-1.66
2023-03-05T21:14:20.429Z,-1.74
2023-03-05T21:16:49.357Z,-1.83
2023-03-05T21:19:18.403Z,-1.86
2023-03-05T21:21:47.324Z,-1.89
2023-03-05T21:24:17.233Z,-1.96
2023-03-05T21:26:46.177Z,-2.02
2023-03-05T21:29:15.182Z,-2.08
2023-03-05T21:31:44.283Z,-2.16
2023-03-05T21:34:14.691Z,-2.23
2023-03-05T21:36:43.648Z,-2.27
2023-03-05T21:39:12.567Z,-2.30
2023-03-05T21:41:41.514Z,-2.29
2023-03-05T21:44:11.812Z,-2.28
2023-03-05T21:46:42.819Z,-2.24
2023-03-05T21:49:11.793Z,-2.19
2023-03-05T21:51:51.127Z,-2.20
2023-03-05T21:54:22.667Z,-2.18
2023-03-05T21:56:51.648Z,-2.18
2023-03-05T21:59:20.530Z,-2.23
2023-03-05T22:01:51.433Z,-2.28
2023-03-05T22:04:21.318Z,-2.31
2023-03-05T22:06:50.596Z,-2.35
2023-03-05T22:09:19.508Z,-2.38
2023-03-05T22:11:48.420Z,-2.42
2023-03-05T22:14:18.111Z,-2.46
2023-03-05T22:16:47.558Z,-2.48
2023-03-05T22:19:16.605Z,-2.41
2023-03-05T22:21:45.621Z,-2.30
2023-03-05T22:24:14.634Z,-2.23
2023-03-05T22:26:43.599Z,-2.18
2023-03-05T22:29:13.159Z,-2.19
2023-03-05T22:31:42.142Z,-2.22
2023-03-05T22:34:11.103Z,-2.23
2023-03-05T22:36:40.643Z,-2.25
2023-03-05T22:39:09.603Z,-2.34
2023-03-05T22:41:41.708Z,-2.41
2023-03-05T22:44:10.795Z,-2.48
2023-03-05T22:46:39.764Z,-2.56
2023-03-05T22:49:08.642Z,-2.64
2023-03-05T22:51:37.584Z,-2.69
2023-03-05T22:54:06.484Z,-2.72
2023-03-05T22:56:36.509Z,-2.75
2023-03-05T22:59:05.427Z,-2.75
2023-03-05T23:01:34.382Z,-2.70
2023-03-05T23:04:09.137Z,-2.66
2023-03-05T23:06:38.043Z,-2.69
2023-03-05T23:09:06.996Z,-2.76
2023-03-05T23:11:36.113Z,-2.89
2023-03-05T23:14:05.075Z,-2.92
2023-03-05T23:16:34.463Z,-2.98
2023-03-05T23:19:03.432Z,-3.03
2023-03-05T23:21:32.388Z,-3.06
2023-03-05T23:24:01.263Z,-3.07
2023-03-05T23:26:30.182Z,-3.09
2023-03-05T23:28:59.072Z,-3.13
2023-03-05T23:31:28.020Z,-3.20
2023-03-05T23:33:57.021Z,-3.24
2023-03-05T23:36:26.316Z,-3.17
2023-03-05T23:38:58.128Z,-3.19
2023-03-05T23:41:27.030Z,-3.21
2023-03-05T23:43:56.038Z,-3.17
2023-03-05T23:46:25.315Z,-3.19
2023-03-05T23:48:54.351Z,-3.25
2023-03-05T23:51:23.292Z,-3.27
2023-03-05T23:53:52.225Z,-3.36
2023-03-05T23:56:21.272Z,-3.44
2023-03-05T23:58:50.242Z,-3.50
